Flight Track Log - Related Links

Times and Time Zones

All times are in EDT time to prevent confusion due to time zone crossing. See the CPA80 flight status page for this flight to view local times or setup timezone preferences in your user account.


Time Position Orientation Groundspeed Altitude Reporting Facility
EDT Latitude Longitude Course Direction KTS MPH feet Rate Location/Type
Thu 03:59:21 PM 61.3500 -149.8833 90° East 270 311 7,900  Level Anchorage Center
Thu 04:00:21 PM 61.3333 -149.7500 105° East 270 311 10,200 2,380 Climbing Anchorage Center
Thu 04:01:00 PM 61.0168 -147.9671 90° East  Level FlightAware Approximate
Thu 04:01:22 PM 61.3167 -149.5833 102° East 290 334 12,700  Level Anchorage Center
Thu 04:02:00 PM 61.0190 -147.6661 86° East  Level FlightAware Approximate
Thu 04:02:22 PM 61.3167 -149.4000 90° East 300 345 15,200  Level Anchorage Center
Thu 04:03:00 PM 61.0291 -147.3656 86° East  Level FlightAware Approximate
Thu 04:04:00 PM 61.0335 -147.0647 90° East  Level FlightAware Approximate
Thu 04:04:22 PM 61.3167 -149.0167 90° East 390 449 17,800  Level Anchorage Center
Thu 04:05:22 PM 61.3167 -148.7833 90° East 410 472 20,700 2,350 Climbing Anchorage Center
Thu 04:06:22 PM 61.3000 -148.5333 98° East 420 483 22,500 1,900 Climbing Anchorage Center
Thu 04:07:22 PM 61.3000 -148.2833 90° East 440 506 24,500 1,800 Climbing Anchorage Center
Thu 04:08:22 PM 61.3000 -148.0167 90° East 460 529 26,100 1,650 Climbing Anchorage Center
Thu 04:09:22 PM 61.2833 -147.7333 97° East 470 541 27,800 1,800 Climbing Anchorage Center
Thu 04:10:22 PM 61.2833 -147.4167 90° East 500 575 29,700 1,650 Climbing Anchorage Center
Thu 04:11:22 PM 61.2667 -147.1333 97° East 490 564 31,100 1,800 Climbing Anchorage Center
Thu 04:12:22 PM 61.2667 -146.8333 90° East 500 575 33,300 1,934 Climbing Anchorage Center
Thu 04:13:23 PM 61.2500 -146.5500 97° East 490 564 35,000 850 Climbing Anchorage Center
Thu 04:14:22 PM 61.2500 -146.2667 90° East 490 564 35,000  Level Anchorage Center
Thu 04:15:23 PM 61.2333 -145.9833 97° East 490 564 35,000  Level Anchorage Center
Thu 04:16:23 PM 61.2167 -145.7000 97° East 490 564 35,000  Level Anchorage Center
Thu 04:17:23 PM 61.2167 -145.4167 90° East 490 564 35,000  Level Anchorage Center
Thu 04:18:23 PM 61.2000 -145.1167 96° East 490 564 35,000  Level Anchorage Center
Thu 04:19:23 PM 61.1833 -144.8333 97° East 490 564 35,000  Level Anchorage Center
Thu 04:20:23 PM 61.1833 -144.6000 90° East 500 575 35,000  Level Anchorage Center
Thu 04:21:23 PM 61.1667 -144.2667 96° East 500 575 35,000  Level Anchorage Center
Thu 04:22:24 PM 61.1500 -143.9667 96° East 500 575 35,000  Level Anchorage Center
Thu 04:23:24 PM 61.1333 -143.7333 98° East 490 564 35,000  Level Anchorage Center
Thu 04:24:23 PM 61.1167 -143.4500 97° East 500 575 35,000  Level Anchorage Center
Thu 04:25:24 PM 61.1000 -143.1667 97° East 500 575 35,000  Level Anchorage Center
Thu 04:26:24 PM 61.0833 -142.8667 96° East 500 575 35,000  Level Anchorage Center
Thu 04:27:24 PM 61.0667 -142.5833 97° East 510 587 35,000  Level Anchorage Center
Thu 04:28:24 PM 61.0333 -142.2833 103° East 510 587 35,000  Level Anchorage Center
Thu 04:29:24 PM 61.0167 -141.9833 96° East 510 587 35,000  Level Anchorage Center
Thu 04:30:24 PM 61.0000 -141.7000 97° East 510 587 35,000  Level Anchorage Center
Thu 04:31:24 PM 60.9833 -141.4167 97° East 510 587 35,000  Level Anchorage Center
Thu 04:32:25 PM 60.9667 -141.1167 96° East 510 587 35,000  Level Anchorage Center
Thu 04:33:24 PM 60.9500 -140.8167 96° East 510 587 35,000  Level Anchorage Center
Thu 04:35:00 PM 60.9286 -140.3460 95° East  Level FlightAware Approximate
Thu 04:42:00 PM 60.8276 -138.2919 95° East  Level FlightAware Approximate
Thu 04:43:00 PM 60.8113 -137.9994 96° East  Level FlightAware Approximate
Thu 04:44:00 PM 60.7944 -137.7073 97° East  Level FlightAware Approximate
Thu 04:45:00 PM 60.7768 -137.4155 97° East  Level FlightAware Approximate
Thu 04:46:00 PM 60.7586 -137.1239 97° East  Level FlightAware Approximate
Thu 04:47:00 PM 60.7397 -136.8328 97° East  Level FlightAware Approximate
Thu 04:48:00 PM 60.7203 -136.5419 98° East  Level FlightAware Approximate
Thu 04:49:00 PM 60.7002 -136.2515 98° East  Level FlightAware Approximate
Thu 04:50:00 PM 60.6795 -135.9614 98° East  Level FlightAware Approximate
Thu 04:51:00 PM 60.6581 -135.6716 98° East  Level FlightAware Approximate
Thu 04:52:00 PM 60.6361 -135.3823 99° East  Level FlightAware Approximate
Thu 04:53:00 PM 60.6150 -135.0930 95° East  Level FlightAware Approximate
Thu 04:54:00 PM 60.6023 -134.8017 95° East  Level FlightAware Approximate
Thu 04:55:00 PM 60.5890 -134.5106 95° East  Level FlightAware Approximate
Thu 04:56:00 PM 60.5751 -134.2198 95° East  Level FlightAware Approximate
Thu 04:57:00 PM 60.5606 -133.9292 96° East  Level FlightAware Approximate
Thu 04:58:00 PM 60.5454 -133.6389 96° East  Level FlightAware Approximate
Thu 04:59:00 PM 60.5296 -133.3489 96° East  Level FlightAware Approximate
Thu 05:00:00 PM 60.5132 -133.0592 96° East  Level FlightAware Approximate
Thu 05:01:00 PM 60.4961 -132.7698 97° East  Level FlightAware Approximate
Thu 05:02:00 PM 60.4785 -132.4806 97° East  Level FlightAware Approximate
Thu 05:03:00 PM 60.4601 -132.1918 97° East  Level FlightAware Approximate
Thu 05:04:00 PM 60.4412 -131.9034 97° East  Level FlightAware Approximate
Thu 05:05:00 PM 60.4216 -131.6152 98° East  Level FlightAware Approximate
Thu 05:06:00 PM 60.4015 -131.3275 98° East  Level FlightAware Approximate
Thu 05:07:00 PM 60.3807 -131.0400 98° East  Level FlightAware Approximate
Thu 05:08:00 PM 60.3593 -130.7530 98° East  Level FlightAware Approximate
Thu 05:09:00 PM 60.3372 -130.4663 99° East  Level FlightAware Approximate
Thu 05:10:00 PM 60.3146 -130.1801 99° East  Level FlightAware Approximate
Thu 05:11:00 PM 60.2915 -129.8941 99° East  Level FlightAware Approximate
Thu 05:12:00 PM 60.2682 -129.6085 99° East  Level FlightAware Approximate
Thu 05:13:00 PM 60.2442 -129.3233 99° East  Level FlightAware Approximate
Thu 05:14:00 PM 60.2196 -129.0385 100° East  Level FlightAware Approximate
Thu 05:15:00 PM 60.1944 -128.7541 100° East  Level FlightAware Approximate
Thu 05:16:00 PM 60.1686 -128.4702 100° East  Level FlightAware Approximate
Thu 05:17:00 PM 60.1422 -128.1867 100° East  Level FlightAware Approximate
Thu 05:18:00 PM 60.1152 -127.9037 101° East  Level FlightAware Approximate
Thu 05:19:00 PM 60.0876 -127.6211 101° East  Level FlightAware Approximate
Thu 05:20:00 PM 60.0594 -127.3390 101° East  Level FlightAware Approximate
Thu 05:21:00 PM 60.0306 -127.0575 101° East  Level FlightAware Approximate
Thu 05:22:00 PM 60.0012 -126.7764 102° East  Level FlightAware Approximate
Thu 05:23:00 PM 59.9712 -126.4958 102° East  Level FlightAware Approximate
Thu 05:24:00 PM 59.9406 -126.2157 102° East  Level FlightAware Approximate
Thu 05:25:00 PM 59.9087 -125.9365 103° East  Level FlightAware Approximate
Thu 05:26:00 PM 59.8761 -125.6579 103° East  Level FlightAware Approximate
Thu 05:27:00 PM 59.8428 -125.3798 103° East  Level FlightAware Approximate
Thu 05:28:00 PM 59.8090 -125.1023 104° East  Level FlightAware Approximate
Thu 05:29:00 PM 59.7745 -124.8254 104° East  Level FlightAware Approximate
Thu 05:30:00 PM 59.7395 -124.5491 104° East  Level FlightAware Approximate
Thu 05:31:00 PM 59.7039 -124.2733 104° East  Level FlightAware Approximate
Thu 05:32:00 PM 59.6678 -123.9982 104° East  Level FlightAware Approximate
Thu 05:33:00 PM 59.6310 -123.7236 105° East  Level FlightAware Approximate
Thu 05:34:00 PM 59.5937 -123.4496 105° East  Level FlightAware Approximate
Thu 05:35:00 PM 59.5558 -123.1762 105° East  Level FlightAware Approximate
Thu 05:36:00 PM 59.5174 -122.9035 105° East  Level FlightAware Approximate
Thu 05:37:00 PM 59.4784 -122.6314 106° East  Level FlightAware Approximate
Thu 05:38:00 PM 59.4388 -122.3599 106° East  Level FlightAware Approximate
Thu 05:39:00 PM 59.3987 -122.0891 106° East  Level FlightAware Approximate
Thu 05:40:00 PM 59.3579 -121.8189 106° East  Level FlightAware Approximate
Thu 05:41:00 PM 59.3167 -121.5493 107° East  Level FlightAware Approximate
Thu 05:42:00 PM 59.2749 -121.2804 107° East  Level FlightAware Approximate
Thu 05:43:00 PM 59.2325 -121.0122 107° East  Level FlightAware Approximate
Thu 05:44:00 PM 59.1896 -120.7447 107° East  Level FlightAware Approximate
Thu 05:45:00 PM 59.1461 -120.4778 108° East  Level FlightAware Approximate
Thu 05:46:00 PM 59.1021 -120.2116 108° East  Level FlightAware Approximate
Thu 05:46:33 PM 58.7333 -118.1000 108° East 600 690 35,000  Level Edmonton Center
Thu 05:47:00 PM 59.0578 -119.9460 108° East  Level FlightAware Approximate
Thu 05:47:33 PM 58.6667 -117.8500 117° Southeast 560 644 35,000  Level Edmonton Center
Thu 05:48:00 PM 59.0140 -119.6803 108° East  Level FlightAware Approximate
Thu 05:48:33 PM 58.6167 -117.5333 107° East 570 656 35,000  Level Edmonton Center
Thu 05:49:00 PM 58.9696 -119.4154 108° East  Level FlightAware Approximate
Thu 05:49:33 PM 58.5500 -117.2500 114° Southeast 580 667 35,000  Level Edmonton Center
Thu 05:50:00 PM 58.9246 -119.1512 108° East  Level FlightAware Approximate
Thu 05:50:33 PM 58.5000 -116.9333 107° East 570 656 35,000  Level Edmonton Center
Thu 05:51:00 PM 58.8792 -118.8876 108° East  Level FlightAware Approximate
Thu 05:51:33 PM 58.4667 -116.6500 103° East 560 644 35,000  Level Edmonton Center
Thu 05:52:33 PM 58.4333 -116.3500 102° East 570 656 35,000  Level Edmonton Center
Thu 05:53:33 PM 58.4000 -116.0333 101° East 560 644 35,000  Level Edmonton Center
Thu 05:54:33 PM 58.3500 -115.7667 110° East 560 644 35,000  Level Edmonton Center
Thu 05:55:33 PM 58.3000 -115.4500 107° East 560 644 35,000  Level Edmonton Center
Thu 05:56:33 PM 58.2667 -115.1833 103° East 560 644 35,000  Level Edmonton Center
Thu 05:57:33 PM 58.2167 -114.8833 107° East 560 644 35,000  Level Edmonton Center
Thu 05:58:33 PM 58.1833 -114.6167 103° East 560 644 35,000  Level Edmonton Center
Thu 05:59:33 PM 58.1333 -114.3000 107° East 560 644 35,000  Level Edmonton Center
Thu 06:00:33 PM 58.0833 -114.0333 109° East 560 644 35,000  Level Edmonton Center
Thu 06:01:33 PM 58.0333 -113.7667 109° East 560 644 35,000  Level Edmonton Center
Thu 06:02:33 PM 58.0000 -113.4667 102° East 550 633 35,000  Level Edmonton Center
Thu 06:03:33 PM 57.9500 -113.1833 108° East 550 633 35,000  Level Edmonton Center
Thu 06:04:33 PM 57.9000 -112.9167 109° East 550 633 35,000  Level Edmonton Center
Thu 06:05:33 PM 57.8500 -112.6667 111° Southeast 550 633 35,000  Level Edmonton Center
Thu 06:06:33 PM 57.8000 -112.3667 107° East 550 633 35,000  Level Edmonton Center
Thu 06:07:33 PM 57.7500 -112.1000 109° East 550 633 35,000  Level Edmonton Center
Thu 06:08:33 PM 57.7000 -111.8000 107° East 550 633 35,000  Level Edmonton Center
Thu 06:09:33 PM 57.6500 -111.5333 109° East 550 633 35,000  Level Edmonton Center
Thu 06:10:33 PM 57.6167 -111.2667 103° East 550 633 35,000  Level Edmonton Center
Thu 06:11:33 PM 57.5500 -111.0000 115° Southeast 550 633 35,000  Level Edmonton Center
Thu 06:12:33 PM 57.5000 -110.7500 110° East 550 633 35,000  Level Edmonton Center
Thu 06:13:33 PM 57.4500 -110.4500 107° East 550 633 35,000  Level Edmonton Center
Thu 06:14:33 PM 57.3667 -110.2167 123° Southeast 550 633 35,000  Level Edmonton Center
Thu 06:15:33 PM 57.3000 -109.9500 115° Southeast 550 633 35,000  Level Edmonton Center
Thu 06:16:33 PM 57.2167 -109.7000 122° Southeast 550 633 35,000  Level Edmonton Center
Thu 06:17:33 PM 57.1667 -109.4667 111° Southeast 550 633 35,000  Level Edmonton Center
Thu 06:18:33 PM 57.0833 -109.2000 120° Southeast 540 621 35,000  Level Edmonton Center
Thu 06:19:33 PM 57.0167 -108.9500 116° Southeast 540 621 35,000  Level Edmonton Center
Thu 06:20:33 PM 56.9333 -108.7000 121° Southeast 540 621 35,000  Level Edmonton Center
Thu 06:21:33 PM 56.8500 -108.4667 123° Southeast 540 621 35,000  Level Edmonton Center
Thu 06:22:33 PM 56.7833 -108.2167 116° Southeast 540 621 35,000  Level Edmonton Center
Thu 06:23:33 PM 56.7167 -107.9833 117° Southeast 540 621 35,000  Level Edmonton Center
Thu 06:24:33 PM 56.6167 -107.7333 126° Southeast 540 621 35,000  Level Edmonton Center
Thu 06:26:38 PM 56.4833 -107.2833 118° Southeast 550 633 35,000  Level Winnipeg Center
Thu 06:27:38 PM 56.4000 -107.0500 123° Southeast 550 633 35,000  Level Winnipeg Center
Thu 06:28:33 PM 56.3167 -106.7667 118° Southeast 540 621 35,000  Level Edmonton Center
Thu 06:29:33 PM 56.2500 -106.5500 119° Southeast 540 621 35,000  Level Edmonton Center
Thu 06:30:33 PM 56.1667 -106.3000 121° Southeast 540 621 35,000  Level Edmonton Center
Thu 06:31:33 PM 56.0833 -106.0833 125° Southeast 540 621 35,000  Level Edmonton Center
Thu 06:32:33 PM 56.0000 -105.8667 124° Southeast 540 621 35,000  Level Edmonton Center
Thu 06:33:33 PM 55.9167 -105.6333 122° Southeast 540 621 35,000  Level Edmonton Center
Thu 06:34:33 PM 55.8167 -105.4167 129° Southeast 540 621 35,000  Level Edmonton Center
Thu 06:35:33 PM 55.7333 -105.1667 121° Southeast 540 621 35,000  Level Edmonton Center
Thu 06:36:33 PM 55.6500 -104.9667 126° Southeast 540 621 35,000  Level Edmonton Center
Thu 06:37:33 PM 55.5667 -104.7500 124° Southeast 540 621 35,000  Level Edmonton Center
Thu 06:38:33 PM 55.4833 -104.5500 126° Southeast 540 621 35,000  Level Edmonton Center
Thu 06:39:33 PM 55.3833 -104.3000 125° Southeast 540 621 35,000  Level Edmonton Center
Thu 06:40:38 PM 55.3000 -104.1167 129° Southeast 540 621 35,000  Level Winnipeg Center
Thu 06:41:38 PM 55.2167 -103.9000 124° Southeast 540 621 35,000  Level Winnipeg Center
Thu 06:42:38 PM 55.1167 -103.7000 131° Southeast 540 621 35,000  Level Winnipeg Center
Thu 06:43:38 PM 55.0333 -103.4833 124° Southeast 540 621 35,000  Level Winnipeg Center
Thu 06:44:38 PM 54.9333 -103.2667 129° Southeast 540 621 35,000  Level Winnipeg Center
Thu 06:45:38 PM 54.8500 -103.0667 126° Southeast 540 621 35,000  Level Winnipeg Center
Thu 06:46:38 PM 54.7667 -102.8500 124° Southeast 540 621 35,000  Level Winnipeg Center
Thu 06:47:33 PM 54.6667 -102.6167 126° Southeast 530 610 35,000  Level Edmonton Center
Thu 06:48:33 PM 54.5667 -102.4167 131° Southeast 530 610 35,000  Level Edmonton Center
Thu 06:49:33 PM 54.4833 -102.2167 126° Southeast 530 610 35,000  Level Edmonton Center
Thu 06:50:33 PM 54.4000 -102.0333 128° Southeast 530 610 35,000  Level Edmonton Center
Thu 06:51:33 PM 54.3000 -101.8333 131° Southeast 530 610 35,000  Level Edmonton Center
Thu 06:52:33 PM 54.2167 -101.6000 121° Southeast 520 598 35,000  Level Edmonton Center
Thu 06:53:33 PM 54.1167 -101.4167 133° Southeast 530 610 35,000  Level Edmonton Center
Thu 06:54:33 PM 54.0333 -101.2167 125° Southeast 530 610 35,000  Level Edmonton Center
Thu 06:55:33 PM 53.9167 -101.0500 140° Southeast 530 610 35,000  Level Edmonton Center
Thu 06:56:33 PM 53.8000 -100.9167 146° Southeast 520 598 35,000  Level Edmonton Center
Thu 06:57:33 PM 53.6667 -100.7667 146° Southeast 530 610 35,000  Level Edmonton Center
Thu 06:58:33 PM 53.5500 -100.6667 153° Southeast 520 598 35,000  Level Edmonton Center
Thu 06:59:33 PM 53.4333 -100.5333 146° Southeast 510 587 35,000  Level Edmonton Center
Thu 07:00:33 PM 53.3000 -100.4000 149° Southeast 520 598 35,000  Level Edmonton Center
Thu 07:01:33 PM 53.1667 -100.2833 152° Southeast 520 598 35,000  Level Edmonton Center
Thu 07:02:33 PM 53.0500 -100.1500 145° Southeast 520 598 35,000  Level Edmonton Center
Thu 07:03:33 PM 52.9167 -100.0000 146° Southeast 520 598 35,000  Level Edmonton Center
Thu 07:04:33 PM 52.8000 -99.9000 153° Southeast 520 598 35,000  Level Edmonton Center
Thu 07:05:33 PM 52.6667 -99.7833 152° Southeast 520 598 35,000  Level Edmonton Center
Thu 07:06:33 PM 52.5500 -99.6167 139° Southeast 520 598 35,000  Level Edmonton Center
Thu 07:07:33 PM 52.4167 -99.5333 159° South 520 598 35,000  Level Edmonton Center
Thu 07:08:33 PM 52.3000 -99.3833 142° Southeast 520 598 35,000  Level Edmonton Center
Thu 07:09:33 PM 52.1667 -99.2833 155° Southeast 520 598 35,000  Level Edmonton Center
Thu 07:10:33 PM 52.0500 -99.1333 142° Southeast 520 598 35,000  Level Edmonton Center
Thu 07:11:33 PM 51.9167 -99.0500 159° South 510 587 35,000  Level Edmonton Center
Thu 07:12:33 PM 51.8000 -98.9000 141° Southeast 510 587 35,000  Level Edmonton Center
Thu 07:13:33 PM 51.6667 -98.8000 155° Southeast 510 587 35,000  Level Edmonton Center
Thu 07:14:33 PM 51.5500 -98.6833 148° Southeast 510 587 35,000  Level Edmonton Center
Thu 07:15:33 PM 51.4167 -98.5667 151° Southeast 510 587 35,000  Level Edmonton Center
Thu 07:16:33 PM 51.3000 -98.4500 148° Southeast 510 587 35,000  Level Edmonton Center
Thu 07:17:33 PM 51.1667 -98.3333 151° Southeast 510 587 35,000  Level Edmonton Center
Thu 07:18:33 PM 51.0667 -98.2167 144° Southeast 500 575 35,000  Level Edmonton Center
Thu 07:19:33 PM 50.9333 -98.1333 158° South 510 587 35,000  Level Edmonton Center
Thu 07:20:33 PM 50.8167 -97.9833 141° Southeast 510 587 35,000  Level Edmonton Center
Thu 07:21:33 PM 50.7000 -97.9000 156° South 510 587 35,000  Level Edmonton Center
Thu 07:22:38 PM 50.5667 -97.8167 158° South 510 587 35,000 576 Level Winnipeg Center
Thu 07:23:38 PM 50.4333 -97.7000 151° Southeast 510 587 36,200 667 Climbing Winnipeg Center
Thu 07:25:00 PM 50.2639 -97.5456 150° Southeast  Level FlightAware Approximate
Thu 07:25:38 PM 50.2000 -97.4833 150° Southeast 500 575 37,000  Level Winnipeg Center
Thu 07:26:38 PM 50.0833 -97.3833 151° Southeast 510 587 37,000  Level Winnipeg Center
Thu 07:27:38 PM 49.9500 -97.2500 147° Southeast 510 587 37,000  Level Winnipeg Center
Thu 07:28:38 PM 49.8333 -97.1500 151° Southeast 510 587 37,000  Level Winnipeg Center
Thu 07:29:38 PM 49.7167 -97.0167 144° Southeast 510 587 37,000  Level Winnipeg Center
Thu 07:30:38 PM 49.6000 -96.9167 151° Southeast 510 587 37,000  Level Winnipeg Center
Thu 07:31:38 PM 49.4667 -96.7833 147° Southeast 510 587 37,000  Level Winnipeg Center
Thu 07:32:38 PM 49.3500 -96.6833 151° Southeast 500 575 37,000  Level Winnipeg Center
Thu 07:33:38 PM 49.2333 -96.5833 151° Southeast 500 575 37,000  Level Winnipeg Center
Thu 07:34:38 PM 49.1167 -96.4500 143° Southeast 500 575 37,000  Level Winnipeg Center
Thu 07:35:38 PM 48.9833 -96.3500 154° Southeast 500 575 37,000  Level Winnipeg Center
Thu 07:36:38 PM 48.8667 -96.2333 147° Southeast 500 575 37,000  Level Winnipeg Center
Thu 07:37:38 PM 48.7500 -96.1333 151° Southeast 510 587 37,000  Level Winnipeg Center
Thu 07:38:38 PM 48.6167 -96.0333 154° Southeast 500 575 37,000 -45 Level Winnipeg Center
Thu 07:39:50 PM 48.5069 -95.9297 148° Southeast 505 581 36,900  Descending Minneapolis Center
Thu 07:40:52 PM 48.3839 -95.8300 152° Southeast 504 580 37,000 44 Climbing Minneapolis Center
Thu 07:42:06 PM 48.2597 -95.7286 151° Southeast 505 581 37,000 -44 Level Minneapolis Center
Thu 07:43:08 PM 48.1122 -95.6100 152° Southeast 503 579 36,900  Descending Minneapolis Center
Thu 07:44:10 PM 47.9661 -95.4922 152° Southeast 500 575 37,000 48 Climbing Minneapolis Center
Thu 07:45:12 PM 47.8375 -95.3914 152° Southeast 502 578 37,000  Level Minneapolis Center
Thu 07:46:26 PM 47.7158 -95.2942 152° Southeast 501 577 37,000  Level Minneapolis Center
Thu 07:47:29 PM 47.5678 -95.1786 152° Southeast 501 577 37,000  Level Minneapolis Center
Thu 07:48:31 PM 47.4483 -95.0814 151° Southeast 496 571 37,000 -48 Level Minneapolis Center
Thu 07:49:33 PM 47.3247 -94.9864 152° Southeast 502 578 36,900 -48 Descending Minneapolis Center
Thu 07:50:35 PM 47.1772 -94.8711 152° Southeast 504 580 36,900 44 Level Minneapolis Center
Thu 07:51:49 PM 47.0539 -94.7792 153° Southeast 502 578 37,000 44 Climbing Minneapolis Center
Thu 07:52:51 PM 46.9056 -94.6647 152° Southeast 504 580 37,000 -48 Level Minneapolis Center
Thu 07:53:53 PM 46.7811 -94.5708 153° Southeast 506 582 36,900  Descending Minneapolis Center
Thu 07:54:55 PM 46.6575 -94.4778 153° Southeast 505 581 37,000 48 Climbing Minneapolis Center
Thu 07:55:57 PM 46.5322 -94.3847 153° Southeast 508 585 37,000  Level Minneapolis Center
Thu 07:56:59 PM 46.3831 -94.2714 152° Southeast 508 585 37,000  Level Minneapolis Center
Thu 07:58:01 PM 46.2578 -94.1794 153° Southeast 507 583 37,000  Level Minneapolis Center
Thu 07:59:05 PM 46.1361 -94.0894 153° Southeast 508 585 37,000  Level Minneapolis Center
Thu 08:00:19 PM 45.9856 -93.9800 153° Southeast 508 585 37,000  Level Minneapolis Center
Thu 08:01:22 PM 45.8344 -93.8692 153° Southeast 509 586 37,000  Level Minneapolis Center
Thu 08:02:24 PM 45.7078 -93.7781 153° Southeast 510 587 37,000  Level Minneapolis Center
Thu 08:03:26 PM 45.5806 -93.6856 153° Southeast 513 590 37,000  Level Minneapolis Center
Thu 08:04:28 PM 45.4542 -93.5933 153° Southeast 512 589 37,000  Level Minneapolis Center
Thu 08:05:30 PM 45.3014 -93.4836 153° Southeast 511 588 37,000  Level Minneapolis Center
Thu 08:06:32 PM 45.1744 -93.3908 153° Southeast 512 589 37,000  Level Minneapolis Center
Thu 08:07:34 PM 45.0839 -93.2256 128° Southeast 530 610 37,000  Level Minneapolis Center
Thu 08:08:36 PM 45.0058 -93.0403 121° Southeast 541 623 37,000  Level Minneapolis Center
Thu 08:09:38 PM 44.9292 -92.8558 120° Southeast 539 620 37,000  Level Minneapolis Center
Thu 08:10:39 PM 44.8672 -92.7094 121° Southeast 539 620 37,000  Level Minneapolis Center
Thu 08:11:42 PM 44.7733 -92.4908 121° Southeast 541 623 37,000  Level Minneapolis Center
Thu 08:12:44 PM 44.6956 -92.3100 121° Southeast 540 621 37,000  Level Minneapolis Center
Thu 08:13:46 PM 44.6017 -92.0939 121° Southeast 541 623 37,000  Level Minneapolis Center
Thu 08:14:48 PM 44.5242 -91.9122 121° Southeast 542 624 37,000  Level Minneapolis Center
Thu 08:15:50 PM 44.4444 -91.7333 122° Southeast 543 625 37,000  Level Minneapolis Center
Thu 08:16:52 PM 44.3656 -91.5542 122° Southeast 543 625 37,000  Level Minneapolis Center
Thu 08:17:54 PM 44.2850 -91.3747 122° Southeast 545 627 37,000 -629 Level Minneapolis Center
Thu 08:18:56 PM 44.2053 -91.1956 122° Southeast 545 627 35,700 -1,742 Descending Minneapolis Center
Thu 08:19:58 PM 44.1097 -90.9781 121° Southeast 548 631 33,400 -1,935 Descending Minneapolis Center
Thu 08:21:00 PM 44.0331 -90.8086 122° Southeast 537 618 31,700 -1,171 Descending Minneapolis Center
Thu 08:22:01 PM 43.9594 -90.6469 122° Southeast 512 589 31,000 -1,073 Descending Minneapolis Center
Thu 08:23:03 PM 43.8964 -90.5094 122° Southeast 496 571 29,500 -1,355 Descending Minneapolis Center
Thu 08:24:05 PM 43.8111 -90.3275 123° Southeast 485 558 28,200 -1,403 Descending Minneapolis Center
Thu 08:25:07 PM 43.7419 -90.1736 122° Southeast 476 548 26,600 -1,597 Descending Minneapolis Center
Thu 08:26:09 PM 43.6608 -90.0000 123° Southeast 465 535 24,900 -1,500 Descending Minneapolis Center
Thu 08:27:11 PM 43.5939 -89.8550 122° Southeast 454 522 23,500 -1,241 Descending Minneapolis Center
Thu 08:27:36 PM 43.5706 -89.8092 125° Southeast 447 514 23,100 -1,241 Descending Chicago Center
Thu 08:28:38 PM 43.4850 -89.6956 136° Southeast 428 493 21,700 -1,403 Descending Chicago Center
Thu 08:29:40 PM 43.3761 -89.5822 143° Southeast 420 483 20,200 -1,452 Descending Chicago Center
Thu 08:30:42 PM 43.2844 -89.4872 143° Southeast 415 478 18,700 -1,210 Descending Chicago Center
Thu 08:31:44 PM 43.1950 -89.3931 142° Southeast 410 472 17,700 -1,065 Descending Chicago Center
Thu 08:32:46 PM 43.1011 -89.3231 151° Southeast 393 452 16,500 -1,161 Descending Chicago Center
Thu 08:33:48 PM 43.0006 -89.2831 164° South 379 436 15,300 -1,210 Descending Chicago Center
Thu 08:34:50 PM 42.8875 -89.2375 164° South 366 421 14,000 -1,113 Descending Chicago Center
Thu 08:35:52 PM 42.7961 -89.1997 163° South 347 399 13,000 -768 Descending Chicago Center
Thu 08:36:55 PM 42.7072 -89.1656 164° South 334 384 12,400 -528 Descending Chicago Center
Thu 08:37:57 PM 42.6175 -89.1308 164° South 335 386 11,900 -581 Descending Chicago Center
Thu 08:38:59 PM 42.5367 -89.0378 140° Southeast 349 402 11,200 -629 Descending Chicago Center
Thu 08:40:01 PM 42.5022 -88.9214 112° Southeast 335 386 10,600 -532 Descending Chicago Center
Thu 08:41:03 PM 42.4647 -88.7956 112° Southeast 366 421 10,100 -290 Descending Chicago Center
Thu 08:42:05 PM 42.4253 -88.6642 112° Southeast 378 435 10,000 -48 Descending Chicago Center
Thu 08:43:07 PM 42.3844 -88.5369 113° Southeast 372 428 10,000  Level Chicago Center
Thu 08:44:09 PM 42.3142 -88.4056 126° Southeast 380 437 10,000  Level Chicago Center
Thu 08:45:11 PM 42.2461 -88.3017 131° Southeast 371 427 10,000 -290 Level Chicago Center
Thu 08:46:13 PM 42.1883 -88.2122 131° Southeast 324 373 9,400 -919 Descending Chicago Center
Thu 08:47:15 PM 42.1314 -88.1247 131° Southeast 311 358 8,100 -1,152 Descending Chicago Center
Thu 08:48:18 PM 42.0569 -88.0883 160° South 293 337 7,000 -528 Descending Chicago Center
Thu 08:49:20 PM 41.9686 -88.0547 164° South 278 320 7,000  Level Chicago Center
Thu 08:50:22 PM 41.9147 -88.0131 150° Southeast 249 287 7,000  Level Chicago Center
Thu 08:51:29 PM 41.8833 -87.9167 114° Southeast 250 288 7,000  Level Chicago TRACON
Thu 08:52:29 PM 41.8833 -87.8167 90° East 246 283 7,000 -474 Level Chicago TRACON
Thu 08:53:23 PM 41.8833 -87.7500 90° East 235 270 6,100 -1,316 Descending Chicago TRACON
Thu 08:54:23 PM 41.8833 -87.6500 90° East 228 262 4,500 -1,000 Descending Chicago TRACON
Thu 08:55:29 PM 41.9500 -87.6333 11° North 222 255 4,000 -250 Descending Chicago TRACON
Thu 08:56:23 PM 41.9667 -87.6833 294° West 172 198 4,000 -626 Level Chicago TRACON
Thu 08:57:24 PM 41.9667 -87.7500 270° West 170 196 2,800 -1,091 Descending Chicago TRACON
Thu 08:58:24 PM 41.9667 -87.8000 270° West 159 183 1,800 -900 Descending Chicago TRACON
Thu 08:59:24 PM 41.9667 -87.8667 270° West 149 171 1,000 -800 Descending Chicago TRACON
Thu 09:01:00 PM 41.9667 -87.9000 294° West  Level FlightAware Approximate

Login

Don't have an account? Register now (free) for customized features, flight alerts, and more!